Time;durP1;ratioP1;P1;durP2;ratioP2;P2;SDS_P1;SDS_P2;PMS_P1;PMS_P2;Temp;Humidity;BMP_temperature;BMP_pressure;BME280_temperature;BME280_humidity;BME280_pressure;Samples;Min_cycle;Max_cycle;Signal;HPM_P1;HPM_P2
2021/12/14 00:01:08;;;;;;;;;;;20.30;50.00;;;;;;688422;23;1895;-85
2021/12/14 00:01:59;;;;;;;;;;;20.30;48.50;;;;;;690570;28;1779;-84
2021/12/14 00:02:31;;;;;;;;;;;21.00;48.90;;;;;;690838;28;1351;-84
2021/12/14 00:03:01;;;;;;;;;;;20.20;48.70;;;;;;690503;28;1301;-83
2021/12/14 00:09:09;;;;;;;;;;;20.30;48.80;;;;;;679801;28;1330;-84
2021/12/14 00:09:34;;;;;;;;;;;20.30;48.80;;;;;;673633;29;1532;-84
2021/12/14 00:10:10;;;;;;;;;;;20.30;48.70;;;;;;677873;29;830;-85
2021/12/14 00:11:23;;;;;;;;;;;20.40;48.80;;;;;;677928;29;712;-85
2021/12/14 00:12:59;;;;;;;;;;;20.40;48.80;;;;;;680768;29;834;-84
2021/12/14 00:13:59;;;;;;;;;;;20.40;48.70;;;;;;680429;29;1301;-84
2021/12/14 00:15:05;;;;;;;;;;;20.40;48.60;;;;;;680553;29;1064;-85
2021/12/14 00:15:25;;;;;;;;;;;20.40;48.60;;;;;;680469;29;1226;-85
2021/12/14 00:15:47;;;;;;;;;;;20.40;48.60;;;;;;680391;29;1351;-86
2021/12/14 00:16:07;;;;;;;;;;;20.40;48.70;;;;;;680403;29;1096;-85
2021/12/14 00:16:28;;;;;;;;;;;20.20;48.60;;;;;;680474;29;891;-85
2021/12/14 00:16:51;;;;;;;;;;;20.40;48.80;;;;;;680520;29;1124;-85
2021/12/14 00:17:16;;;;;;;;;;;20.40;49.00;;;;;;679876;29;898;-84
2021/12/14 00:17:45;;;;;;;;;;;20.40;48.60;;;;;;678002;29;859;-82
2021/12/14 00:18:14;;;;;;;;;;;20.70;48.70;;;;;;677745;29;1303;-82
2021/12/14 00:18:50;;;;;;;;;;;20.40;49.30;;;;;;678573;29;1235;-82
2021/12/14 00:19:12;;;;;;;;;;;20.40;49.50;;;;;;681201;29;878;-86
2021/12/14 00:19:33;;;;;;;;;;;20.40;48.60;;;;;;681383;29;1361;-86
2021/12/14 00:20:51;;;;;;;;;;;20.40;48.60;;;;;;684002;28;1349;-83
2021/12/14 00:21:20;;;;;;;;;;;20.40;49.10;;;;;;689226;28;1152;-85
2021/12/14 00:21:47;;;;;;;;;;;20.40;48.60;;;;;;689231;28;1251;-86
2021/12/14 00:22:31;;;;;;;;;;;20.40;48.60;;;;;;689379;28;889;-85
2021/12/14 00:24:07;;;;;;;;;;;20.40;48.60;;;;;;688646;28;700;-85
2021/12/14 00:24:28;;;;;;;;;;;20.40;48.60;;;;;;687121;28;1368;-85
2021/12/14 00:24:48;;;;;;;;;;;20.40;48.50;;;;;;686252;28;1297;-85
2021/12/14 00:25:09;;;;;;;;;;;20.40;48.50;;;;;;684678;29;1335;-85
2021/12/14 00:25:37;;;;;;;;;;;20.40;48.60;;;;;;684800;29;1188;-85
2021/12/14 00:26:43;;;;;;;;;;;20.40;48.50;;;;;;684046;28;1296;-81
2021/12/14 00:27:05;;;;;;;;;;;20.40;48.60;;;;;;690109;28;1029;-83
2021/12/14 00:27:26;;;;;;;;;;;20.40;48.80;;;;;;689607;28;965;-85
2021/12/14 00:27:50;;;;;;;;;;;20.40;48.50;;;;;;687745;28;1182;-83
2021/12/14 00:28:31;;;;;;;;;;;20.50;48.70;;;;;;687886;28;1272;-82
2021/12/14 00:29:45;;;;;;;;;;;20.40;48.50;;;;;;691110;23;1760;-84
2021/12/14 00:30:10;;;;;;;;;;;20.40;48.50;;;;;;680114;29;1831;-83
2021/12/14 00:34:08;;;;;;;;;;;20.40;48.50;;;;;;684214;28;1337;-83
2021/12/14 00:34:42;;;;;;;;;;;20.50;49.70;;;;;;688620;28;1264;-83
2021/12/14 00:35:12;;;;;;;;;;;20.40;48.50;;;;;;687916;28;988;-83
2021/12/14 00:35:33;;;;;;;;;;;20.50;48.60;;;;;;685557;28;1294;-84
2021/12/14 00:35:53;;;;;;;;;;;20.40;48.50;;;;;;684237;29;1178;-82
2021/12/14 00:36:14;;;;;;;;;;;20.40;48.50;;;;;;684524;28;1105;-82
2021/12/14 00:36:35;;;;;;;;;;;20.50;48.70;;;;;;682841;29;1277;-84
2021/12/14 00:37:35;;;;;;;;;;;20.40;48.70;;;;;;685747;28;1568;-82
2021/12/14 00:37:58;;;;;;;;;;;20.30;48.70;;;;;;686077;28;1154;-81
2021/12/14 00:44:50;;;;;;;;;;;20.50;65.40;;;;;;686199;28;1152;-84
2021/12/14 00:45:55;;;;;;;;;;;19.80;65.60;;;;;;688393;28;1121;-84
2021/12/14 00:46:17;;;;;;;;;;;19.90;66.80;;;;;;685032;28;1300;-84
2021/12/14 00:46:43;;;;;;;;;;;20.50;68.40;;;;;;683275;29;1282;-81
2021/12/14 00:47:09;;;;;;;;;;;19.80;68.60;;;;;;682581;29;1287;-82
2021/12/14 00:47:32;;;;;;;;;;;20.50;70.80;;;;;;682953;29;1221;-83
2021/12/14 00:48:05;;;;;;;;;;;20.50;70.90;;;;;;683029;29;1194;-85
2021/12/14 00:48:26;;;;;;;;;;;20.50;72.30;;;;;;683622;28;1495;-84
2021/12/14 00:48:49;;;;;;;;;;;20.50;72.40;;;;;;682911;29;1247;-81
2021/12/14 00:49:17;;;;;;;;;;;20.50;72.00;;;;;;680531;29;808;-82
2021/12/14 00:49:46;;;;;;;;;;;20.50;72.10;;;;;;680884;29;1371;-82
2021/12/14 00:50:13;;;;;;;;;;;20.60;73.60;;;;;;682482;29;1373;-82
2021/12/14 00:50:34;;;;;;;;;;;20.50;72.10;;;;;;686766;28;839;-84
2021/12/14 00:51:06;;;;;;;;;;;;;;;;;;;;;
2021/12/14 00:51:30;;;;;;;;;;;20.80;70.40;;;;;;687179;28;1231;-83
2021/12/14 00:51:51;;;;;;;;;;;20.50;71.40;;;;;;683296;28;1440;-82
2021/12/14 00:52:12;;;;;;;;;;;20.50;69.50;;;;;;682865;29;1907;-84
2021/12/14 00:52:36;;;;;;;;;;;20.50;69.50;;;;;;683115;29;786;-84
2021/12/14 00:53:19;;;;;;;;;;;20.50;67.90;;;;;;695843;23;1711;-83
2021/12/14 00:53:40;;;;;;;;;;;20.50;68.70;;;;;;686091;28;1443;-83
2021/12/14 00:54:04;;;;;;;;;;;20.50;70.30;;;;;;686501;28;902;-82
2021/12/14 00:54:25;;;;;;;;;;;20.50;69.50;;;;;;686070;28;1487;-84
2021/12/14 00:54:46;;;;;;;;;;;20.40;67.70;;;;;;684065;28;1378;-82
2021/12/14 00:55:08;;;;;;;;;;;20.40;67.00;;;;;;683382;29;1355;-85
2021/12/14 00:55:32;;;;;;;;;;;20.50;65.90;;;;;;683769;28;874;-85
2021/12/14 00:56:16;;;;;;;;;;;20.50;66.10;;;;;;692186;23;1757;-83
2021/12/14 00:56:38;;;;;;;;;;;20.40;66.00;;;;;;686333;28;1024;-84
2021/12/14 00:56:59;;;;;;;;;;;20.40;63.60;;;;;;686301;28;1305;-83
2021/12/14 00:57:20;;;;;;;;;;;20.50;75.80;;;;;;686232;28;1247;-87
2021/12/14 00:57:40;;;;;;;;;;;20.50;80.90;;;;;;687315;28;1262;-84
2021/12/14 00:58:02;;;;;;;;;;;20.50;82.70;;;;;;689011;28;969;-84
2021/12/14 00:58:23;;;;;;;;;;;20.60;82.60;;;;;;688976;28;1565;-87
2021/12/14 00:58:44;;;;;;;;;;;20.60;82.80;;;;;;685264;28;1005;-85
2021/12/14 00:59:16;;;;;;;;;;;19.80;81.80;;;;;;685225;28;1182;-86
2021/12/14 00:59:37;;;;;;;;;;;20.60;82.80;;;;;;686178;28;1114;-86
2021/12/14 00:59:57;;;;;;;;;;;20.60;81.50;;;;;;686301;28;823;-86
2021/12/14 01:00:28;;;;;;;;;;;20.60;80.60;;;;;;688417;28;839;-84
2021/12/14 01:01:14;;;;;;;;;;;20.70;80.90;;;;;;686008;28;1499;-85
2021/12/14 01:02:01;;;;;;;;;;;20.90;77.10;;;;;;679150;29;1261;-86
2021/12/14 01:02:25;;;;;;;;;;;20.60;76.30;;;;;;682318;29;1124;-83
2021/12/14 01:03:43;;;;;;;;;;;20.60;74.50;;;;;;683903;28;1801;-83
2021/12/14 01:04:21;;;;;;;;;;;20.60;74.20;;;;;;686485;28;807;-85
2021/12/14 01:05:08;;;;;;;;;;;;;;;;;;;;;
2021/12/14 01:05:41;;;;;;;;;;;21.40;72.60;;;;;;683691;29;994;-83
2021/12/14 01:06:11;;;;;;;;;;;20.50;71.40;;;;;;683574;29;1368;-85
2021/12/14 01:08:28;;;;;;;;;;;19.70;69.30;;;;;;693414;23;1816;-86
2021/12/14 01:09:17;;;;;;;;;;;;;;;;;;;;;
2021/12/14 01:10:32;;;;;;;;;;;20.50;68.10;;;;;;690999;23;1486;-84
2021/12/14 01:11:21;;;;;;;;;;;20.60;68.00;;;;;;683683;28;843;-85
2021/12/14 01:12:03;;;;;;;;;;;20.50;67.60;;;;;;683888;28;904;-85
2021/12/14 01:12:53;;;;;;;;;;;20.50;67.30;;;;;;683817;28;1590;-86
2021/12/14 01:13:15;;;;;;;;;;;20.10;66.80;;;;;;680068;29;1254;-85
2021/12/14 01:13:44;;;;;;;;;;;20.50;66.70;;;;;;675799;29;1339;-85
2021/12/14 01:14:39;;;;;;;;;;;20.50;66.60;;;;;;676549;29;1218;-85
2021/12/14 01:15:25;;;;;;;;;;;20.40;66.10;;;;;;678307;29;863;-86
2021/12/14 01:17:09;;;;;;;;;;;20.40;66.00;;;;;;687129;28;1290;-87
2021/12/14 01:17:43;;;;;;;;;;;20.30;65.50;;;;;;675514;29;1486;-87
2021/12/14 01:19:26;;;;;;;;;;;20.10;64.70;;;;;;685132;23;2345;-87
2021/12/14 01:19:54;;;;;;;;;;;18.90;63.90;;;;;;678392;29;1415;-87
2021/12/14 01:20:43;;;;;;;;;;;20.40;65.90;;;;;;680824;29;1227;-85
2021/12/14 01:21:16;;;;;;;;;;;21.20;64.90;;;;;;680837;29;1319;-86
2021/12/14 01:22:38;;;;;;;;;;;20.30;66.00;;;;;;678264;29;1255;-86
2021/12/14 01:23:29;;;;;;;;;;;20.30;64.20;;;;;;677734;29;1599;-85
2021/12/14 01:25:11;;;;;;;;;;;20.30;65.90;;;;;;683582;29;1272;-86
2021/12/14 01:25:35;;;;;;;;;;;19.80;63.10;;;;;;680889;29;1323;-87
2021/12/14 01:25:58;;;;;;;;;;;20.30;63.40;;;;;;678226;29;1440;-87
2021/12/14 01:26:31;;;;;;;;;;;20.30;62.80;;;;;;675697;29;1298;-84
2021/12/14 01:27:07;;;;;;;;;;;20.30;64.00;;;;;;675708;29;1084;-84
2021/12/14 01:27:47;;;;;;;;;;;20.20;64.30;;;;;;675935;29;1322;-86
2021/12/14 01:28:10;;;;;;;;;;;20.20;63.10;;;;;;679091;29;1370;-87
2021/12/14 01:28:31;;;;;;;;;;;20.30;62.90;;;;;;680823;29;1510;-87
2021/12/14 01:30:24;;;;;;;;;;;20.30;62.70;;;;;;685773;26;1927;-86
2021/12/14 01:30:58;;;;;;;;;;;20.30;63.10;;;;;;686516;28;815;-85
2021/12/14 01:31:26;;;;;;;;;;;20.20;62.70;;;;;;683139;29;1225;-85
2021/12/14 01:32:12;;;;;;;;;;;20.30;62.20;;;;;;680936;29;1316;-86
2021/12/14 01:32:50;;;;;;;;;;;20.20;62.90;;;;;;681002;29;1187;-85
2021/12/14 01:33:13;;;;;;;;;;;19.80;61.80;;;;;;682226;29;1238;-85
2021/12/14 01:33:35;;;;;;;;;;;20.20;62.30;;;;;;681491;29;1209;-86
2021/12/14 01:34:54;;;;;;;;;;;20.20;61.40;;;;;;678873;29;1403;-85
2021/12/14 01:36:07;;;;;;;;;;;;;;;;;;;;;
2021/12/14 01:36:39;;;;;;;;;;;20.10;61.50;;;;;;667159;29;1432;-85
2021/12/14 01:37:12;;;;;;;;;;;19.00;61.20;;;;;;670253;29;1246;-85
2021/12/14 01:37:59;;;;;;;;;;;20.20;62.70;;;;;;670357;29;1336;-85
2021/12/14 01:38:47;;;;;;;;;;;20.20;61.50;;;;;;670541;29;903;-87
2021/12/14 01:40:05;;;;;;;;;;;21.40;61.20;;;;;;673082;29;788;-85
2021/12/14 01:41:10;;;;;;;;;;;20.20;61.80;;;;;;673249;29;583;-86
2021/12/14 01:41:31;;;;;;;;;;;20.20;61.40;;;;;;672924;29;805;-86
2021/12/14 01:41:54;;;;;;;;;;;20.10;62.20;;;;;;670439;29;1312;-86
2021/12/14 01:42:26;;;;;;;;;;;20.20;60.80;;;;;;670457;29;1372;-87
2021/12/14 01:42:47;;;;;;;;;;;20.20;60.80;;;;;;670507;29;1220;-86
2021/12/14 01:43:11;;;;;;;;;;;20.20;61.90;;;;;;667578;29;1361;-84
2021/12/14 01:44:09;;;;;;;;;;;20.20;60.30;;;;;;687645;23;1716;-87
2021/12/14 01:44:43;;;;;;;;;;;20.10;60.60;;;;;;674765;29;1995;-85
2021/12/14 01:45:13;;;;;;;;;;;20.10;60.30;;;;;;678317;29;1476;-85
2021/12/14 01:45:40;;;;;;;;;;;20.20;60.10;;;;;;679348;29;1226;-84
2021/12/14 01:46:21;;;;;;;;;;;20.50;60.50;;;;;;676288;29;1553;-85
2021/12/14 01:46:43;;;;;;;;;;;20.10;60.30;;;;;;678461;29;1286;-84
2021/12/14 01:47:14;;;;;;;;;;;20.10;61.00;;;;;;675857;29;1270;-85
2021/12/14 01:47:55;;;;;;;;;;;20.10;61.20;;;;;;678339;29;1127;-87
2021/12/14 01:48:36;;;;;;;;;;;20.20;60.20;;;;;;673990;29;1290;-87
2021/12/14 01:50:50;;;;;;;;;;;20.10;59.60;;;;;;681073;29;1363;-86
2021/12/14 01:51:12;;;;;;;;;;;20.10;59.60;;;;;;682527;29;1057;-86
2021/12/14 01:51:41;;;;;;;;;;;20.10;59.90;;;;;;683950;29;1061;-87
2021/12/14 01:52:34;;;;;;;;;;;20.10;59.70;;;;;;683967;29;1151;-86
2021/12/14 01:52:55;;;;;;;;;;;20.00;61.50;;;;;;676725;29;1078;-87
2021/12/14 01:56:27;;;;;;;;;;;20.90;61.00;;;;;;687195;28;1218;-85
2021/12/14 01:56:50;;;;;;;;;;;21.70;59.70;;;;;;682750;29;1438;-87
2021/12/14 01:57:34;;;;;;;;;;;19.70;59.00;;;;;;682462;29;985;-87
2021/12/14 02:01:22;;;;;;;;;;;19.20;58.60;;;;;;691338;23;1454;-85
2021/12/14 02:02:56;;;;;;;;;;;18.50;57.80;;;;;;681779;28;791;-86
2021/12/14 02:03:29;;;;;;;;;;;18.40;57.50;;;;;;687371;28;1362;-86
2021/12/14 02:04:54;;;;;;;;;;;;;;;;;;;;;
2021/12/14 02:05:26;;;;;;;;;;;19.20;57.90;;;;;;684125;28;1207;-85
2021/12/14 02:06:15;;;;;;;;;;;19.90;58.40;;;;;;690704;23;1638;-84
2021/12/14 02:06:38;;;;;;;;;;;20.00;58.70;;;;;;681878;29;1368;-85
2021/12/14 02:08:17;;;;;;;;;;;20.10;58.50;;;;;;686993;28;1154;-85
2021/12/14 02:09:44;;;;;;;;;;;20.10;58.20;;;;;;683631;29;1013;-85
2021/12/14 02:10:43;;;;;;;;;;;19.30;57.80;;;;;;683614;29;1329;-85
2021/12/14 02:11:22;;;;;;;;;;;20.60;58.50;;;;;;676884;29;1290;-85
2021/12/14 02:11:57;;;;;;;;;;;18.10;56.50;;;;;;677930;29;1212;-85
2021/12/14 02:12:42;;;;;;;;;;;20.10;59.00;;;;;;678152;29;1911;-86
2021/12/14 02:13:10;;;;;;;;;;;19.50;57.50;;;;;;677774;29;1351;-85
2021/12/14 02:13:40;;;;;;;;;;;19.80;57.60;;;;;;675663;29;1238;-85
2021/12/14 02:14:09;;;;;;;;;;;20.10;58.60;;;;;;675261;29;1245;-85
2021/12/14 02:16:38;;;;;;;;;;;20.00;58.00;;;;;;672825;29;993;-86
2021/12/14 02:17:11;;;;;;;;;;;20.40;58.00;;;;;;671931;29;1458;-85
2021/12/14 02:18:14;;;;;;;;;;;;;;;;;;;;;
2021/12/14 02:18:46;;;;;;;;;;;21.10;58.30;;;;;;673815;29;1303;-85
2021/12/14 02:19:14;;;;;;;;;;;20.10;57.70;;;;;;672672;29;1081;-86
2021/12/14 02:20:39;;;;;;;;;;;20.50;58.00;;;;;;672950;29;695;-85
2021/12/14 02:21:12;;;;;;;;;;;19.00;57.00;;;;;;672500;29;1248;-85
2021/12/14 02:21:55;;;;;;;;;;;20.10;57.70;;;;;;670091;29;1350;-86
2021/12/14 02:29:16;;;;;;;;;;;20.00;57.00;;;;;;686847;28;1497;-85
2021/12/14 02:29:53;;;;;;;;;;;20.00;57.00;;;;;;688952;28;1149;-84
2021/12/14 02:30:17;;;;;;;;;;;21.30;58.10;;;;;;689249;28;846;-84
2021/12/14 02:31:06;;;;;;;;;;;20.50;57.30;;;;;;686115;28;1359;-85
2021/12/14 02:31:27;;;;;;;;;;;19.30;56.70;;;;;;683359;29;1371;-84
2021/12/14 02:31:48;;;;;;;;;;;20.00;57.20;;;;;;683366;29;1423;-84
2021/12/14 02:32:28;;;;;;;;;;;20.00;59.90;;;;;;680303;29;1906;-86
2021/12/14 02:32:57;;;;;;;;;;;20.00;57.10;;;;;;680574;29;1217;-84
2021/12/14 02:33:39;;;;;;;;;;;;;;;;;;;;;
2021/12/14 02:34:16;;;;;;;;;;;20.00;57.80;;;;;;684734;28;1261;-85
2021/12/14 02:35:19;;;;;;;;;;;20.00;58.30;;;;;;703298;23;1779;-85
2021/12/14 02:37:05;;;;;;;;;;;20.00;57.00;;;;;;688448;28;1301;-86
2021/12/14 02:38:49;;;;;;;;;;;20.00;56.80;;;;;;683464;28;1490;-86
2021/12/14 02:39:23;;;;;;;;;;;19.90;56.50;;;;;;682734;29;1402;-84
2021/12/14 02:44:47;;;;;;;;;;;19.60;56.20;;;;;;675408;29;1235;-86
2021/12/14 02:45:42;;;;;;;;;;;19.90;56.50;;;;;;666809;29;1214;-85
2021/12/14 02:47:16;;;;;;;;;;;19.90;56.30;;;;;;672832;29;592;-83
2021/12/14 02:47:46;;;;;;;;;;;19.90;56.50;;;;;;669980;29;1407;-84
2021/12/14 02:49:19;;;;;;;;;;;20.00;56.70;;;;;;670137;29;998;-85
2021/12/14 02:50:44;;;;;;;;;;;19.80;56.50;;;;;;691903;23;1769;-85
2021/12/14 02:51:27;;;;;;;;;;;19.80;56.40;;;;;;680232;29;1160;-84
2021/12/14 02:51:50;;;;;;;;;;;20.00;56.50;;;;;;680437;29;1234;-83
2021/12/14 02:52:40;;;;;;;;;;;20.00;56.80;;;;;;680487;29;1911;-84
2021/12/14 02:53:19;;;;;;;;;;;20.00;56.50;;;;;;680196;29;1463;-85
2021/12/14 02:53:47;;;;;;;;;;;19.90;56.30;;;;;;680292;29;1377;-83
2021/12/14 02:54:53;;;;;;;;;;;20.00;56.50;;;;;;680219;29;1396;-84
2021/12/14 02:56:08;;;;;;;;;;;20.00;57.00;;;;;;665730;29;1207;-84
2021/12/14 02:56:56;;;;;;;;;;;20.10;56.30;;;;;;667889;29;820;-84
2021/12/14 02:57:28;;;;;;;;;;;20.00;56.20;;;;;;667479;29;1178;-84
2021/12/14 02:59:20;;;;;;;;;;;20.10;56.10;;;;;;494598;26;1886;-84
2021/12/14 02:59:42;;;;;;;;;;;20.30;56.20;;;;;;679680;29;1166;-83
2021/12/14 03:00:40;;;;;;;;;;;20.10;56.00;;;;;;680591;29;1192;-86
2021/12/14 03:01:14;;;;;;;;;;;20.10;56.00;;;;;;672612;29;1450;-84
2021/12/14 03:01:46;;;;;;;;;;;20.10;56.00;;;;;;672521;29;1256;-83
2021/12/14 03:02:09;;;;;;;;;;;20.10;56.50;;;;;;672606;29;1314;-83
2021/12/14 03:02:51;;;;;;;;;;;20.10;56.00;;;;;;671187;29;1438;-84
2021/12/14 03:03:12;;;;;;;;;;;19.80;55.60;;;;;;672628;29;1324;-84
2021/12/14 03:05:08;;;;;;;;;;;20.10;55.90;;;;;;670064;29;1350;-84
2021/12/14 03:05:13;;;;;;;;;;;20.00;56.10;;;;;;672595;29;1185;-84
2021/12/14 03:05:42;;;;;;;;;;;19.70;55.80;;;;;;671842;29;1372;-84
2021/12/14 03:06:20;;;;;;;;;;;20.10;56.70;;;;;;672839;29;863;-84
2021/12/14 03:06:47;;;;;;;;;;;20.10;56.50;;;;;;672830;29;950;-84
2021/12/14 03:07:24;;;;;;;;;;;20.10;56.10;;;;;;672616;29;1462;-84
2021/12/14 03:08:15;;;;;;;;;;;20.30;55.80;;;;;;670169;29;1562;-84
2021/12/14 03:09:06;;;;;;;;;;;20.00;55.60;;;;;;670072;29;1232;-86
2021/12/14 03:11:52;;;;;;;;;;;;;;;;;;;;;
2021/12/14 03:12:34;;;;;;;;;;;20.00;55.50;;;;;;675271;29;1903;-83
2021/12/14 03:13:00;;;;;;;;;;;19.80;55.40;;;;;;675239;29;808;-81
2021/12/14 03:13:21;;;;;;;;;;;20.10;55.80;;;;;;675439;29;907;-81
2021/12/14 03:13:51;;;;;;;;;;;20.20;57.30;;;;;;675434;29;860;-83
2021/12/14 03:14:23;;;;;;;;;;;20.20;56.10;;;;;;677877;29;1402;-84
2021/12/14 03:14:53;;;;;;;;;;;19.70;55.80;;;;;;677826;29;1507;-83
2021/12/14 03:15:22;;;;;;;;;;;19.60;55.70;;;;;;677979;29;851;-84
2021/12/14 03:15:48;;;;;;;;;;;20.10;56.10;;;;;;677732;29;1378;-84
2021/12/14 03:16:12;;;;;;;;;;;20.20;56.10;;;;;;675709;29;816;-83
2021/12/14 03:16:34;;;;;;;;;;;20.10;56.10;;;;;;672915;29;1274;-84
2021/12/14 03:17:31;;;;;;;;;;;20.10;56.30;;;;;;680546;29;1638;-85
2021/12/14 03:18:18;;;;;;;;;;;20.10;57.00;;;;;;685952;28;906;-84
2021/12/14 03:20:39;;;;;;;;;;;19.50;55.70;;;;;;675392;29;1405;-83
2021/12/14 03:21:05;;;;;;;;;;;20.10;57.60;;;;;;672195;29;1346;-84
2021/12/14 03:21:28;;;;;;;;;;;20.10;57.10;;;;;;672752;29;887;-83
2021/12/14 03:21:51;;;;;;;;;;;20.10;56.60;;;;;;672791;29;906;-84
2021/12/14 03:22:47;;;;;;;;;;;20.20;56.10;;;;;;672701;29;1463;-84
2021/12/14 03:23:22;;;;;;;;;;;19.80;56.30;;;;;;669848;29;1237;-83
2021/12/14 03:23:48;;;;;;;;;;;20.60;56.30;;;;;;670323;29;789;-84
2021/12/14 03:24:22;;;;;;;;;;;20.20;57.20;;;;;;668182;29;1278;-84
2021/12/14 03:26:25;;;;;;;;;;;19.70;55.90;;;;;;692720;23;1968;-84
2021/12/14 03:27:02;;;;;;;;;;;21.90;56.90;;;;;;683369;28;1227;-83
2021/12/14 03:27:53;;;;;;;;;;;20.10;56.50;;;;;;680536;29;1361;-84
2021/12/14 03:28:26;;;;;;;;;;;18.80;55.20;;;;;;680540;29;1184;-84
2021/12/14 03:29:05;;;;;;;;;;;19.50;55.40;;;;;;680881;29;858;-84
2021/12/14 03:29:48;;;;;;;;;;;20.00;55.70;;;;;;680280;29;1402;-83
2021/12/14 03:30:23;;;;;;;;;;;20.10;56.50;;;;;;680580;29;1266;-83
2021/12/14 03:30:52;;;;;;;;;;;20.00;55.60;;;;;;680727;29;832;-82
2021/12/14 03:31:32;;;;;;;;;;;20.00;55.70;;;;;;680439;29;1426;-83
2021/12/14 03:32:16;;;;;;;;;;;20.00;55.90;;;;;;677693;29;1195;-84
2021/12/14 03:32:51;;;;;;;;;;;20.00;55.80;;;;;;678031;29;891;-83
2021/12/14 03:33:18;;;;;;;;;;;20.00;55.50;;;;;;677407;29;1215;-83
2021/12/14 03:33:43;;;;;;;;;;;19.10;55.20;;;;;;678237;29;1240;-83
2021/12/14 03:34:22;;;;;;;;;;;20.00;55.70;;;;;;680390;29;1029;-83
2021/12/14 03:34:54;;;;;;;;;;;20.00;55.60;;;;;;680501;29;1327;-83
2021/12/14 03:35:14;;;;;;;;;;;20.00;55.70;;;;;;678289;29;1310;-83
2021/12/14 03:35:46;;;;;;;;;;;20.00;55.60;;;;;;679789;29;1262;-83
2021/12/14 03:36:28;;;;;;;;;;;19.90;55.60;;;;;;679939;29;1251;-83
2021/12/14 03:37:20;;;;;;;;;;;19.90;55.50;;;;;;707721;23;1882;-84
2021/12/14 03:37:44;;;;;;;;;;;19.30;55.10;;;;;;685825;28;1285;-83
2021/12/14 03:38:53;;;;;;;;;;;;;;;;;;;;;
2021/12/14 03:39:38;;;;;;;;;;;20.00;55.80;;;;;;680847;28;1180;-82
2021/12/14 03:40:18;;;;;;;;;;;;;;;;;;;;;
2021/12/14 03:41:10;;;;;;;;;;;18.80;55.00;;;;;;686161;28;1197;-83
2021/12/14 03:41:45;;;;;;;;;;;19.90;55.50;;;;;;683271;29;1217;-83
2021/12/14 03:42:13;;;;;;;;;;;19.90;55.50;;;;;;683360;28;1089;-83
2021/12/14 03:42:38;;;;;;;;;;;19.90;56.90;;;;;;681956;29;1345;-83
2021/12/14 03:43:01;;;;;;;;;;;19.90;56.20;;;;;;683000;29;1280;-83
2021/12/14 03:44:06;;;;;;;;;;;19.90;55.90;;;;;;683124;29;1189;-83
2021/12/14 03:44:54;;;;;;;;;;;20.00;55.70;;;;;;676261;29;1243;-83
2021/12/14 03:45:26;;;;;;;;;;;19.90;55.70;;;;;;677695;29;1209;-83
2021/12/14 03:46:27;;;;;;;;;;;;;;;;;;;;;
2021/12/14 03:47:21;;;;;;;;;;;19.90;55.70;;;;;;689887;23;1833;-83
2021/12/14 03:47:46;;;;;;;;;;;19.90;55.80;;;;;;684362;28;815;-84
2021/12/14 03:48:38;;;;;;;;;;;19.70;55.50;;;;;;683186;29;1116;-84
2021/12/14 03:49:21;;;;;;;;;;;19.90;55.50;;;;;;683272;28;1316;-83
2021/12/14 03:50:13;;;;;;;;;;;19.80;55.40;;;;;;683195;28;1319;-84
2021/12/14 03:50:41;;;;;;;;;;;20.30;55.80;;;;;;677717;29;1350;-84
2021/12/14 03:52:52;;;;;;;;;;;20.00;55.70;;;;;;682953;29;1942;-83
2021/12/14 03:53:41;;;;;;;;;;;19.40;55.30;;;;;;682878;29;1271;-84
2021/12/14 03:54:39;;;;;;;;;;;19.90;56.80;;;;;;691856;23;1932;-84
2021/12/14 03:55:25;;;;;;;;;;;19.90;55.70;;;;;;684277;28;1836;-82
2021/12/14 03:55:54;;;;;;;;;;;19.70;55.50;;;;;;685434;28;1472;-84
2021/12/14 03:56:47;;;;;;;;;;;19.90;56.10;;;;;;685850;28;827;-83
2021/12/14 03:57:33;;;;;;;;;;;19.80;55.40;;;;;;679993;29;1201;-83
2021/12/14 03:58:22;;;;;;;;;;;19.70;55.30;;;;;;682914;29;1298;-83
2021/12/14 03:58:46;;;;;;;;;;;19.80;55.40;;;;;;677695;29;1424;-85
2021/12/14 03:59:12;;;;;;;;;;;20.10;55.70;;;;;;677524;29;1328;-83
2021/12/14 04:01:52;;;;;;;;;;;19.80;55.90;;;;;;685787;28;1087;-83
2021/12/14 04:02:41;;;;;;;;;;;19.80;55.30;;;;;;680290;29;1461;-84
2021/12/14 04:03:11;;;;;;;;;;;19.40;55.10;;;;;;680324;29;1236;-84
2021/12/14 04:03:32;;;;;;;;;;;19.80;56.60;;;;;;680533;29;838;-84
2021/12/14 04:10:34;;;;;;;;;;;19.80;55.30;;;;;;305230;26;1907;-82
2021/12/14 04:10:56;;;;;;;;;;;19.80;56.70;;;;;;687032;28;1825;-84
2021/12/14 04:11:28;;;;;;;;;;;19.80;56.30;;;;;;688215;28;1445;-83
2021/12/14 04:12:02;;;;;;;;;;;19.00;54.90;;;;;;688412;28;1297;-83
2021/12/14 04:12:26;;;;;;;;;;;19.80;55.40;;;;;;687960;28;1983;-84
2021/12/14 04:12:51;;;;;;;;;;;19.80;55.30;;;;;;687846;28;895;-84
2021/12/14 04:13:16;;;;;;;;;;;19.80;55.20;;;;;;685868;28;1308;-85
2021/12/14 04:13:39;;;;;;;;;;;19.80;55.30;;;;;;683146;29;1202;-85
2021/12/14 04:13:59;;;;;;;;;;;19.80;55.30;;;;;;683135;29;1227;-85
2021/12/14 04:14:23;;;;;;;;;;;19.80;55.40;;;;;;683191;29;1360;-84
2021/12/14 04:15:36;;;;;;;;;;;19.80;55.30;;;;;;675279;29;784;-83
2021/12/14 04:16:22;;;;;;;;;;;19.80;56.10;;;;;;675130;29;996;-83
2021/12/14 04:16:56;;;;;;;;;;;19.80;55.40;;;;;;677990;29;855;-84
2021/12/14 04:17:17;;;;;;;;;;;19.70;55.30;;;;;;677884;29;835;-84
2021/12/14 04:18:19;;;;;;;;;;;19.80;55.70;;;;;;677743;29;1224;-83
2021/12/14 04:18:43;;;;;;;;;;;19.80;55.30;;;;;;670048;29;1230;-83
2021/12/14 04:19:20;;;;;;;;;;;19.80;56.20;;;;;;669738;29;1202;-84
2021/12/14 04:20:05;;;;;;;;;;;19.80;55.20;;;;;;669953;29;1265;-83
2021/12/14 04:20:37;;;;;;;;;;;19.80;55.20;;;;;;670024;29;1121;-83
2021/12/14 04:21:25;;;;;;;;;;;19.80;55.30;;;;;;684330;28;1390;-84
2021/12/14 04:23:02;;;;;;;;;;;19.90;55.30;;;;;;687526;23;2035;-84
2021/12/14 04:23:27;;;;;;;;;;;19.80;55.40;;;;;;679294;29;2065;-85
2021/12/14 04:23:52;;;;;;;;;;;19.80;56.30;;;;;;677811;29;1409;-84
2021/12/14 04:25:17;;;;;;;;;;;19.30;54.90;;;;;;675987;29;626;-82
2021/12/14 04:25:48;;;;;;;;;;;19.80;55.30;;;;;;676357;29;1218;-83
2021/12/14 04:26:36;;;;;;;;;;;20.30;56.30;;;;;;676528;29;1582;-83
2021/12/14 04:27:32;;;;;;;;;;;19.80;55.40;;;;;;677871;29;1685;-82
2021/12/14 04:29:12;;;;;;;;;;;19.60;55.10;;;;;;678082;29;1520;-83
2021/12/14 04:32:21;;;;;;;;;;;19.80;55.30;;;;;;686685;28;1534;-83
2021/12/14 04:32:57;;;;;;;;;;;19.70;55.30;;;;;;689013;28;987;-82
2021/12/14 04:33:31;;;;;;;;;;;19.80;55.80;;;;;;688851;28;1147;-82
2021/12/14 04:34:03;;;;;;;;;;;19.80;55.70;;;;;;680481;29;1344;-82
2021/12/14 04:35:35;;;;;;;;;;;19.70;55.10;;;;;;673032;29;1638;-83
2021/12/14 04:36:34;;;;;;;;;;;19.80;55.30;;;;;;672956;29;1573;-83
2021/12/14 04:36:55;;;;;;;;;;;19.40;55.70;;;;;;670196;29;1373;-83
2021/12/14 04:37:37;;;;;;;;;;;19.70;55.60;;;;;;667905;29;1250;-83
2021/12/14 04:39:58;;;;;;;;;;;19.80;55.20;;;;;;689503;28;1249;-82
2021/12/14 04:56:01;;;;;;;;;;;19.80;55.10;;;;;;680672;29;1085;-82
2021/12/14 04:58:14;;;;;;;;;;;;;;;;;;;;;
2021/12/14 05:03:34;;;;;;;;;;;19.70;55.10;;;;;;695070;23;1766;-82
2021/12/14 05:04:18;;;;;;;;;;;19.70;55.30;;;;;;678330;29;988;-84
2021/12/14 05:07:14;;;;;;;;;;;19.80;55.60;;;;;;492847;26;1835;-84
2021/12/14 05:09:45;;;;;;;;;;;19.80;55.40;;;;;;697019;23;1787;-82
2021/12/14 05:10:37;;;;;;;;;;;19.80;55.30;;;;;;677490;29;1780;-83
2021/12/14 05:11:04;;;;;;;;;;;19.80;55.30;;;;;;678327;29;932;-85
2021/12/14 05:11:41;;;;;;;;;;;19.70;55.10;;;;;;678322;29;808;-83
2021/12/14 05:12:44;;;;;;;;;;;19.80;55.40;;;;;;678283;29;1249;-83
2021/12/14 05:14:42;;;;;;;;;;;19.80;56.00;;;;;;694173;23;1766;-83
2021/12/14 05:15:24;;;;;;;;;;;19.80;55.90;;;;;;686423;28;1307;-83
2021/12/14 05:16:01;;;;;;;;;;;19.80;55.50;;;;;;683040;29;1277;-83
2021/12/14 05:16:37;;;;;;;;;;;19.80;55.30;;;;;;680417;29;1454;-82
2021/12/14 05:19:10;;;;;;;;;;;19.80;55.10;;;;;;687251;28;1185;-83
2021/12/14 05:19:52;;;;;;;;;;;19.80;55.20;;;;;;689308;28;791;-82
2021/12/14 05:21:56;;;;;;;;;;;19.80;55.10;;;;;;688864;28;1392;-83
2021/12/14 05:22:33;;;;;;;;;;;19.80;55.20;;;;;;688796;28;1389;-83
2021/12/14 05:25:40;;;;;;;;;;;19.80;55.10;;;;;;680743;29;1434;-82
2021/12/14 05:26:24;;;;;;;;;;;19.80;55.10;;;;;;675993;29;1478;-81
2021/12/14 05:28:02;;;;;;;;;;;19.90;55.10;;;;;;740618;23;1708;-83
2021/12/14 05:29:02;;;;;;;;;;;19.90;55.10;;;;;;680963;29;1137;-84
2021/12/14 05:30:05;;;;;;;;;;;19.90;55.10;;;;;;681482;29;1213;-85
2021/12/14 05:31:02;;;;;;;;;;;19.90;55.10;;;;;;680208;29;1453;-84
2021/12/14 05:31:31;;;;;;;;;;;19.90;55.10;;;;;;684028;29;1428;-85
2021/12/14 05:32:18;;;;;;;;;;;19.90;55.10;;;;;;694525;23;1766;-85
2021/12/14 05:32:47;;;;;;;;;;;19.90;55.40;;;;;;688209;28;1220;-83
2021/12/14 05:33:16;;;;;;;;;;;20.00;55.30;;;;;;685973;28;1502;-85
2021/12/14 05:33:54;;;;;;;;;;;20.00;55.40;;;;;;683116;28;1245;-87
2021/12/14 05:34:17;;;;;;;;;;;20.00;55.40;;;;;;684278;28;859;-85
2021/12/14 05:34:58;;;;;;;;;;;20.00;55.30;;;;;;685562;28;1298;-83
2021/12/14 05:35:21;;;;;;;;;;;20.00;55.30;;;;;;690057;28;1360;-84